Time;durP1;ratioP1;P1;durP2;ratioP2;P2;SDS_P1;SDS_P2;PMS_P1;PMS_P2;Temp;Humidity;BMP_temperature;BMP_pressure;BME280_temperature;BME280_humidity;BME280_pressure;Samples;Min_cycle;Max_cycle;Signal;HPM_P1;HPM_P2
2023/11/05 00:01:03;;;;;;;34.90;18.30;;;;;;;7.46;100.00;97830.36;667906;1275;138478;-81
2023/11/05 00:16:40;;;;;;;36.90;18.00;;;;;;;7.39;100.00;97801.27;653243;1298;545171;-82
2023/11/05 00:31:43;;;;;;;32.10;18.10;;;;;;;7.55;100.00;97783.26;671107;1275;139292;-81
2023/11/05 00:46:46;;;;;;;30.40;15.10;;;;;;;7.73;100.00;97756.66;666740;1275;138343;-83
2023/11/05 01:01:49;;;;;;;30.40;15.60;;;;;;;7.88;100.00;97740.66;673587;1275;139308;-81
2023/11/05 01:16:53;;;;;;;26.10;16.10;;;;;;;8.07;100.00;97734.40;671094;1272;138421;-81
2023/11/05 01:31:57;;;;;;;29.60;15.90;;;;;;;8.17;100.00;97711.21;670572;1272;140217;-80
2023/11/05 01:47:00;;;;;;;31.60;15.40;;;;;;;8.12;100.00;97685.61;668346;1273;138214;-80
2023/11/05 02:02:06;;;;;;;25.20;14.00;;;;;;;8.09;100.00;97654.27;667169;1274;138679;-80
2023/11/05 02:17:09;;;;;;;28.60;15.60;;;;;;;8.11;100.00;97636.43;673737;1272;138840;-80
2023/11/05 02:32:13;;;;;;;28.00;14.00;;;;;;;8.19;99.98;97637.48;673662;1272;139063;-81
2023/11/05 02:47:16;;;;;;;25.40;14.10;;;;;;;8.16;100.00;97626.80;674686;1275;140134;-81
2023/11/05 03:02:20;;;;;;;27.80;15.50;;;;;;;8.28;100.00;97621.02;678839;1258;139833;-81
2023/11/05 03:17:23;;;;;;;27.80;15.60;;;;;;;8.35;100.00;97611.00;674206;1262;138227;-80
2023/11/05 03:32:27;;;;;;;25.30;14.80;;;;;;;8.36;100.00;97582.51;669820;1262;138840;-81
2023/11/05 03:47:30;;;;;;;29.90;15.80;;;;;;;8.29;100.00;97574.21;674773;1260;139690;-82
2023/11/05 04:02:34;;;;;;;29.10;16.30;;;;;;;8.35;100.00;97527.04;673626;1278;139375;-81
2023/11/05 04:17:37;;;;;;;26.30;14.80;;;;;;;8.19;100.00;97480.06;674540;1276;140151;-81
2023/11/05 04:32:43;;;;;;;25.60;15.00;;;;;;;8.25;100.00;97476.34;674006;1266;139105;-81
2023/11/05 04:47:47;;;;;;;24.70;13.30;;;;;;;8.35;100.00;97461.17;675296;1263;139866;-82
2023/11/05 05:02:50;;;;;;;27.70;14.10;;;;;;;8.28;100.00;97443.80;673583;1262;138959;-82
2023/11/05 05:17:54;;;;;;;20.60;12.80;;;;;;;8.26;100.00;97465.33;672942;1272;138940;-82
2023/11/05 05:32:57;;;;;;;25.60;13.00;;;;;;;8.37;100.00;97491.45;676410;1257;139272;-82
2023/11/05 05:48:01;;;;;;;20.90;12.20;;;;;;;8.53;100.00;97463.04;672197;1277;138992;-82
2023/11/05 06:03:04;;;;;;;58.30;37.30;;;;;;;8.76;99.76;97448.35;673486;1263;138564;-82
2023/11/05 06:18:08;;;;;;;45.40;24.00;;;;;;;8.77;99.61;97429.15;674989;1260;142296;-83
2023/11/05 06:33:12;;;;;;;50.90;28.40;;;;;;;8.85;99.36;97431.12;675741;1264;139805;-82
2023/11/05 06:48:16;;;;;;;24.30;13.10;;;;;;;9.26;97.81;97426.93;675023;1264;139811;-83
2023/11/05 07:03:23;;;;;;;25.30;14.30;;;;;;;9.55;96.02;97414.45;673977;1260;138260;-83
2023/11/05 07:18:28;;;;;;;98.50;44.00;;;;;;;9.82;94.80;97385.69;673483;1264;138497;-83
2023/11/05 07:33:31;;;;;;;61.10;26.80;;;;;;;9.87;93.34;97377.55;672612;1263;139455;-83
2023/11/05 07:48:35;;;;;;;22.70;13.40;;;;;;;10.23;92.24;97369.10;674184;1263;138981;-82
2023/11/05 08:03:40;;;;;;;37.00;18.90;;;;;;;10.45;92.12;97361.66;676226;1259;139243;-83
2023/11/05 08:18:44;;;;;;;21.50;13.30;;;;;;;10.45;91.86;97356.58;670473;1264;140476;-84
2023/11/05 08:33:47;;;;;;;65.90;31.90;;;;;;;10.81;91.63;97348.48;673668;1260;140039;-82
2023/11/05 08:48:51;;;;;;;30.00;16.30;;;;;;;11.16;90.40;97354.09;675149;1262;139478;-81
2023/11/05 09:03:54;;;;;;;19.40;10.60;;;;;;;11.57;87.89;97359.73;671068;1263;138464;-82
2023/11/05 09:18:59;;;;;;;28.70;11.60;;;;;;;12.07;85.61;97373.38;677025;1262;140273;-82
2023/11/05 09:34:04;;;;;;;25.60;12.60;;;;;;;11.90;85.84;97370.67;673363;1257;139591;-83
2023/11/05 09:49:08;;;;;;;28.10;14.00;;;;;;;11.90;86.45;97345.45;671869;1264;139632;-82
2023/11/05 10:04:11;;;;;;;21.90;10.70;;;;;;;12.16;85.89;97332.74;675697;1262;139734;-81
2023/11/05 10:19:15;;;;;;;21.90;12.90;;;;;;;12.16;85.74;97318.64;671437;1262;138957;-83
2023/11/05 10:34:20;;;;;;;12.70;8.80;;;;;;;12.06;87.50;97298.17;676893;1262;138981;-82
2023/11/05 10:49:24;;;;;;;18.20;9.80;;;;;;;12.34;86.65;97304.88;679681;1262;138850;-81
2023/11/05 11:04:28;;;;;;;16.10;9.30;;;;;;;12.64;85.70;97309.28;672995;1263;139546;-82
2023/11/05 11:19:32;;;;;;;26.80;13.10;;;;;;;12.83;85.24;97306.27;674519;1262;140223;-81
2023/11/05 11:34:35;;;;;;;36.70;15.70;;;;;;;12.65;85.70;97317.09;673238;1272;140976;-83
2023/11/05 11:49:39;;;;;;;17.10;10.70;;;;;;;12.83;86.14;97312.10;675725;1259;138698;-82
2023/11/05 12:04:42;;;;;;;55.70;32.10;;;;;;;12.81;86.12;97292.49;673283;1263;139829;-81
2023/11/05 12:19:46;;;;;;;52.90;29.90;;;;;;;12.78;86.44;97307.92;678196;1262;138949;-82
2023/11/05 12:34:50;;;;;;;131.40;37.60;;;;;;;12.85;86.76;97304.19;674489;1274;139463;-81
2023/11/05 12:49:53;;;;;;;44.80;19.50;;;;;;;12.87;87.33;97278.85;671812;1263;139877;-81
2023/11/05 13:04:56;;;;;;;53.40;22.50;;;;;;;12.72;87.69;97266.11;674726;1258;139723;-80
2023/11/05 13:20:00;;;;;;;48.30;23.30;;;;;;;12.71;88.61;97269.07;675126;1261;139871;-81
2023/11/05 13:35:05;;;;;;;37.70;19.10;;;;;;;12.70;88.95;97276.89;677526;1275;139335;-81
2023/11/05 13:50:11;;;;;;;26.10;13.10;;;;;;;12.55;89.11;97284.31;671775;1262;138523;-81
2023/11/05 14:05:15;;;;;;;45.20;19.50;;;;;;;12.39;89.53;97293.52;673719;1262;138732;-81
2023/11/05 14:20:19;;;;;;;30.90;16.00;;;;;;;12.28;90.39;97288.31;675130;1259;139033;-82
2023/11/05 14:35:22;;;;;;;49.90;23.40;;;;;;;12.13;92.63;97290.78;673490;1262;139159;-83
2023/11/05 14:50:30;;;;;;;48.00;21.50;;;;;;;12.06;94.74;97299.34;670903;1260;139137;-81
2023/11/05 15:05:33;;;;;;;74.30;31.60;;;;;;;12.13;95.98;97291.46;677452;1262;138636;-83
2023/11/05 15:20:37;;;;;;;86.90;46.30;;;;;;;12.10;98.16;97301.56;671603;1261;138750;-83
2023/11/05 15:35:40;;;;;;;59.10;24.00;;;;;;;12.19;99.96;97318.70;671376;1265;139609;-83
2023/11/05 15:50:44;;;;;;;53.20;27.90;;;;;;;12.37;99.99;97332.91;670865;1264;138679;-83
2023/11/05 16:05:51;;;;;;;60.90;29.70;;;;;;;12.38;100.00;97335.27;671875;1261;138815;-82
2023/11/05 16:20:54;;;;;;;46.20;24.90;;;;;;;12.43;100.00;97345.09;674329;1262;140300;-82
2023/11/05 16:35:59;;;;;;;52.50;33.10;;;;;;;12.17;100.00;97364.48;675771;1265;138546;-83
2023/11/05 16:51:05;;;;;;;43.30;30.30;;;;;;;12.01;100.00;97365.30;675656;1267;139372;-83
2023/11/05 17:06:10;;;;;;;42.90;26.10;;;;;;;11.97;100.00;97369.79;673104;1265;139005;-83
2023/11/05 17:21:13;;;;;;;136.40;82.60;;;;;;;11.91;100.00;97372.52;674189;1265;139118;-82
2023/11/05 17:36:18;;;;;;;84.30;46.90;;;;;;;11.91;100.00;97381.30;677022;1262;139463;-83
2023/11/05 17:51:22;;;;;;;44.30;25.80;;;;;;;11.87;100.00;97382.77;678968;1262;139337;-83
2023/11/05 18:06:25;;;;;;;47.60;24.80;;;;;;;11.79;100.00;97378.09;674750;1262;139373;-82
2023/11/05 18:21:30;;;;;;;51.00;23.30;;;;;;;11.83;100.00;97379.41;673431;1262;138886;-82
2023/11/05 18:36:33;;;;;;;95.20;42.10;;;;;;;11.86;100.00;97381.92;671310;1265;138876;-83
2023/11/05 18:51:37;;;;;;;68.30;26.50;;;;;;;11.98;100.00;97389.63;682407;1263;138660;-81
2023/11/05 19:06:42;;;;;;;33.50;20.20;;;;;;;12.08;100.00;97397.70;682557;1262;138660;-82
2023/11/05 19:21:47;;;;;;;31.20;18.50;;;;;;;12.26;100.00;97411.05;682491;1262;139638;-80
2023/11/05 19:36:50;;;;;;;36.60;23.30;;;;;;;12.27;100.00;97411.45;682722;1262;138874;-82
2023/11/05 19:51:54;;;;;;;62.90;24.50;;;;;;;12.23;100.00;97416.38;682642;1264;138288;-79
2023/11/05 20:06:59;;;;;;;23.00;14.80;;;;;;;12.16;100.00;97430.30;682099;1265;137399;-83
2023/11/05 20:22:02;;;;;;;24.50;14.50;;;;;;;12.15;100.00;97434.19;682374;1262;138596;-82
2023/11/05 20:37:06;;;;;;;20.40;13.20;;;;;;;12.15;100.00;97445.87;682585;1264;138877;-81
2023/11/05 20:52:10;;;;;;;20.90;12.90;;;;;;;12.09;100.00;97458.13;681976;1264;138457;-81
2023/11/05 21:07:14;;;;;;;23.20;15.60;;;;;;;12.05;100.00;97464.83;681843;1263;139532;-82
2023/11/05 21:22:17;;;;;;;23.00;13.90;;;;;;;11.93;100.00;97474.52;681992;1258;139055;-80
2023/11/05 21:37:22;;;;;;;19.90;12.50;;;;;;;12.12;100.00;97486.77;681981;1262;138832;-80
2023/11/05 21:52:26;;;;;;;21.70;13.20;;;;;;;12.14;100.00;97499.80;681974;1263;139178;-82
2023/11/05 22:07:29;;;;;;;24.60;14.10;;;;;;;12.12;100.00;97512.11;681904;1273;139442;-81
2023/11/05 22:22:33;;;;;;;22.60;13.80;;;;;;;12.12;100.00;97524.57;682052;1265;138747;-81
2023/11/05 22:37:36;;;;;;;19.50;12.10;;;;;;;12.12;100.00;97528.25;681983;1263;139525;-81
2023/11/05 22:52:40;;;;;;;21.50;12.50;;;;;;;12.21;100.00;97532.31;682143;1264;139567;-81
2023/11/05 23:07:44;;;;;;;20.40;11.80;;;;;;;12.36;100.00;97544.63;681985;1264;139157;-81
2023/11/05 23:22:48;;;;;;;18.90;11.90;;;;;;;12.40;100.00;97549.33;682194;1263;139611;-82
2023/11/05 23:37:51;;;;;;;22.50;10.80;;;;;;;12.42;100.00;97563.63;682016;1263;138849;-80
2023/11/05 23:52:55;;;;;;;16.00;10.60;;;;;;;12.51;100.00;97574.09;681916;1266;139037;-81
